Time;durP1;ratioP1;P1;durP2;ratioP2;P2;SDS_P1;SDS_P2;PMS_P1;PMS_P2;Temp;Humidity;BMP_temperature;BMP_pressure;BME280_temperature;BME280_humidity;BME280_pressure;Samples;Min_cycle;Max_cycle;Signal;HPM_P1;HPM_P2
2023/02/23 00:01:49;;;;;;;4.38;3.08;;;20.20;80.60;;;;;;5035443;28;20295;-65
2023/02/23 00:04:17;;;;;;;4.43;3.20;;;20.20;80.60;;;;;;5043192;28;20227;-60
2023/02/23 00:06:45;;;;;;;4.25;2.97;;;20.20;80.70;;;;;;5046612;28;20253;-64
2023/02/23 00:09:21;;;;;;;4.20;2.97;;;20.20;80.70;;;;;;5048314;28;20195;-61
2023/02/23 00:11:48;;;;;;;4.95;3.83;;;20.20;80.70;;;;;;5049259;28;20567;-60
2023/02/23 00:14:15;;;;;;;3.50;3.20;;;20.20;80.70;;;;;;5047676;28;20613;-59
2023/02/23 00:16:44;;;;;;;3.42;3.13;;;20.20;80.80;;;;;;5049643;28;20195;-63
2023/02/23 00:19:12;;;;;;;4.15;3.10;;;20.20;81.70;;;;;;5047399;28;20278;-61
2023/02/23 00:21:40;;;;;;;5.43;3.35;;;20.20;80.90;;;;;;5048129;28;20233;-60
2023/02/23 00:24:11;;;;;;;3.70;3.17;;;20.20;81.00;;;;;;5044401;28;20214;-59
2023/02/23 00:26:39;;;;;;;2.60;2.40;;;20.20;81.10;;;;;;5040806;28;20200;-61
2023/02/23 00:29:08;;;;;;;4.38;3.63;;;20.20;81.10;;;;;;5047395;28;20286;-60
2023/02/23 00:31:37;;;;;;;3.60;3.25;;;20.10;81.80;;;;;;5048355;28;20673;-58
2023/02/23 00:34:06;;;;;;;4.50;3.25;;;20.10;81.10;;;;;;5048100;28;20578;-60
2023/02/23 00:36:34;;;;;;;3.28;2.97;;;20.10;81.10;;;;;;5048325;28;20200;-63
2023/02/23 00:39:10;;;;;;;4.30;3.15;;;20.10;81.20;;;;;;5047165;28;20199;-66
2023/02/23 00:41:41;;;;;;;4.50;3.30;;;20.10;81.20;;;;;;5042276;28;20230;-63
2023/02/23 00:44:08;;;;;;;4.55;2.65;;;20.10;81.20;;;;;;5049562;28;20212;-62
2023/02/23 00:46:34;;;;;;;3.80;3.25;;;20.10;81.30;;;;;;5045772;28;20202;-61
2023/02/23 00:49:03;;;;;;;3.80;2.97;;;20.10;81.20;;;;;;5045921;28;20199;-60
2023/02/23 00:51:31;;;;;;;3.80;3.03;;;20.10;81.30;;;;;;5047215;28;20602;-61
2023/02/23 00:53:58;;;;;;;5.10;2.88;;;20.10;81.20;;;;;;5045299;28;20195;-66
2023/02/23 00:56:27;;;;;;;3.03;2.72;;;20.10;81.30;;;;;;5048514;28;20596;-60
2023/02/23 00:58:55;;;;;;;4.18;3.28;;;20.10;81.30;;;;;;5044779;28;20203;-61
2023/02/23 01:01:23;;;;;;;3.40;3.00;;;20.10;81.40;;;;;;5044884;28;20192;-63
2023/02/23 01:03:51;;;;;;;4.55;3.33;;;20.10;81.30;;;;;;5045964;28;20272;-65
2023/02/23 01:06:19;;;;;;;3.10;2.70;;;20.10;81.30;;;;;;5047346;28;20696;-61
2023/02/23 01:08:48;;;;;;;3.50;3.20;;;20.10;81.30;;;;;;5047687;28;20227;-62
2023/02/23 01:11:18;;;;;;;2.75;2.53;;;20.10;81.40;;;;;;5045562;28;20195;-66
2023/02/23 01:13:46;;;;;;;2.88;2.67;;;20.10;81.40;;;;;;5041812;28;20203;-62
2023/02/23 01:16:17;;;;;;;2.85;2.47;;;20.10;81.40;;;;;;5040183;28;20250;-60
2023/02/23 01:18:45;;;;;;;3.20;2.90;;;20.00;81.20;;;;;;5046843;28;20203;-60
2023/02/23 01:21:16;;;;;;;4.10;3.50;;;20.00;81.20;;;;;;5045402;28;20647;-62
2023/02/23 01:23:42;;;;;;;3.10;2.83;;;20.00;81.20;;;;;;5043942;28;20204;-61
2023/02/23 01:26:15;;;;;;;3.90;2.78;;;20.00;81.20;;;;;;5037777;28;20218;-62
2023/02/23 01:28:42;;;;;;;3.30;2.63;;;20.00;81.20;;;;;;5044245;28;20287;-61
2023/02/23 01:31:09;;;;;;;3.50;2.75;;;20.00;81.20;;;;;;5045770;28;20197;-58
2023/02/23 01:33:37;;;;;;;3.28;2.95;;;20.00;81.20;;;;;;5046922;28;20191;-63
2023/02/23 01:36:04;;;;;;;3.03;2.58;;;20.00;81.20;;;;;;5045783;28;20210;-59
2023/02/23 01:38:31;;;;;;;2.80;2.50;;;20.00;81.20;;;;;;5043140;28;20202;-58
2023/02/23 01:40:57;;;;;;;4.10;2.80;;;20.00;81.20;;;;;;5046874;28;20563;-67
2023/02/23 01:43:25;;;;;;;2.95;2.55;;;20.00;81.20;;;;;;5048458;28;20195;-60
2023/02/23 01:45:54;;;;;;;3.70;3.10;;;20.00;81.20;;;;;;5047594;28;20250;-63
2023/02/23 01:48:26;;;;;;;2.90;2.60;;;19.90;81.10;;;;;;5046918;28;20195;-63
2023/02/23 01:50:57;;;;;;;3.38;2.70;;;20.00;81.20;;;;;;5044718;28;20953;-58
2023/02/23 01:53:26;;;;;;;4.22;2.72;;;19.90;81.00;;;;;;5045243;28;20678;-61
2023/02/23 01:55:57;;;;;;;3.30;3.00;;;19.90;81.00;;;;;;5045490;28;20578;-61
2023/02/23 01:58:26;;;;;;;3.17;2.88;;;19.90;81.00;;;;;;5041087;28;20191;-65
2023/02/23 02:00:56;;;;;;;4.53;2.80;;;19.90;81.00;;;;;;5039200;28;20290;-57
2023/02/23 02:03:29;;;;;;;2.75;2.55;;;19.90;80.90;;;;;;5047699;28;20199;-61
2023/02/23 02:05:58;;;;;;;3.88;3.45;;;19.90;80.90;;;;;;5039558;28;20699;-60
2023/02/23 02:08:27;;;;;;;3.85;3.42;;;19.90;80.90;;;;;;5041486;28;20214;-60
2023/02/23 02:10:56;;;;;;;2.80;2.50;;;19.90;80.90;;;;;;5043261;28;20200;-60
2023/02/23 02:13:28;;;;;;;3.20;2.90;;;19.90;80.90;;;;;;5037715;28;20203;-60
2023/02/23 02:16:27;;;;;;;4.35;3.50;;;19.90;80.80;;;;;;5044451;28;20667;-62
2023/02/23 02:19:28;;;;;;;3.08;2.78;;;19.90;80.80;;;;;;5040867;28;20245;-64
2023/02/23 02:22:26;;;;;;;3.60;2.53;;;19.90;80.80;;;;;;5027237;28;20214;-59
2023/02/23 02:25:18;;;;;;;2.30;2.10;;;19.90;81.60;;;;;;5046581;28;20234;-62
2023/02/23 02:28:11;;;;;;;3.30;1.92;;;19.90;80.70;;;;;;5038334;28;20192;-60
2023/02/23 02:31:12;;;;;;;4.70;3.35;;;19.90;80.70;;;;;;5023442;28;20551;-61
2023/02/23 02:34:05;;;;;;;5.50;2.78;;;19.90;80.70;;;;;;5034616;28;20218;-66
2023/02/23 02:37:16;;;;;;;2.28;2.15;;;19.90;80.70;;;;;;5044378;28;20278;-61
2023/02/23 02:39:53;;;;;;;4.70;2.78;;;19.80;80.60;;;;;;5038829;28;20675;-67
2023/02/23 02:42:34;;;;;;;5.68;2.65;;;19.80;80.60;;;;;;5049403;28;20196;-59
2023/02/23 02:45:08;;;;;;;2.72;2.40;;;19.80;80.60;;;;;;5048850;28;20245;-59
2023/02/23 02:47:38;;;;;;;3.90;2.75;;;19.80;81.40;;;;;;5042116;28;20198;-57
2023/02/23 02:50:11;;;;;;;3.70;2.42;;;19.80;80.80;;;;;;5049409;28;20218;-60
2023/02/23 02:52:44;;;;;;;3.25;2.75;;;19.80;80.60;;;;;;5047595;28;20200;-60
2023/02/23 02:55:16;;;;;;;3.00;2.80;;;19.80;80.60;;;;;;5048779;28;20207;-58
2023/02/23 02:57:45;;;;;;;3.45;2.88;;;19.80;80.60;;;;;;5043990;28;20196;-60
2023/02/23 04:19:00;;;;;;;3.05;2.20;;;19.70;80.40;;;;;;5041487;28;20191;-62
2023/02/23 04:21:27;;;;;;;2.78;2.58;;;19.60;80.60;;;;;;5046525;28;20238;-62
2023/02/23 04:23:54;;;;;;;3.40;2.55;;;19.60;79.80;;;;;;5042961;28;20207;-59
2023/02/23 04:26:21;;;;;;;3.17;2.90;;;19.60;79.80;;;;;;5046090;28;20223;-62
2023/02/23 04:28:47;;;;;;;3.55;2.65;;;19.60;79.80;;;;;;5043798;28;20242;-62
2023/02/23 04:31:15;;;;;;;2.60;2.40;;;19.60;79.80;;;;;;5044941;28;20678;-62
2023/02/23 04:33:43;;;;;;;2.85;2.65;;;19.60;79.80;;;;;;5042391;28;20200;-60
2023/02/23 04:36:09;;;;;;;2.60;2.40;;;19.60;79.80;;;;;;5046169;28;20203;-61
2023/02/23 04:38:36;;;;;;;2.75;2.55;;;19.60;79.80;;;;;;5047139;28;20207;-62
2023/02/23 04:41:03;;;;;;;3.22;2.90;;;19.60;79.80;;;;;;5046036;28;20282;-62
2023/02/23 04:43:29;;;;;;;2.65;2.45;;;19.60;79.80;;;;;;5033574;28;20199;-59
2023/02/23 04:45:56;;;;;;;2.38;2.17;;;19.60;79.70;;;;;;5044515;28;20230;-60
2023/02/23 04:48:25;;;;;;;3.25;2.95;;;19.60;79.70;;;;;;5044887;28;20287;-65
2023/02/23 04:50:54;;;;;;;3.67;3.25;;;19.60;79.70;;;;;;5044926;28;20209;-62
2023/02/23 04:53:21;;;;;;;2.90;2.63;;;19.60;79.70;;;;;;5045716;28;20195;-62
2023/02/23 04:55:47;;;;;;;2.63;2.35;;;19.60;79.70;;;;;;5047757;28;20204;-60
2023/02/23 04:58:14;;;;;;;3.00;2.70;;;19.60;79.70;;;;;;5047566;28;20200;-65
2023/02/23 05:00:41;;;;;;;4.03;3.40;;;19.60;79.70;;;;;;5045109;28;20278;-60
2023/02/23 05:03:08;;;;;;;2.50;2.22;;;19.60;79.70;;;;;;5047933;28;20207;-60
2023/02/23 05:05:35;;;;;;;4.03;2.92;;;19.60;79.60;;;;;;5046002;28;20217;-59
2023/02/23 05:08:03;;;;;;;4.18;3.78;;;19.60;79.60;;;;;;5042749;28;20211;-67
2023/02/23 05:10:30;;;;;;;3.45;2.95;;;19.60;79.60;;;;;;5043672;28;20541;-63
2023/02/23 05:12:58;;;;;;;2.53;2.33;;;19.60;79.60;;;;;;5040953;28;20200;-60
2023/02/23 05:15:24;;;;;;;3.13;2.83;;;19.60;79.60;;;;;;5034377;28;20225;-60
2023/02/23 05:17:51;;;;;;;2.95;2.72;;;19.50;79.50;;;;;;5048905;28;20215;-62
2023/02/23 05:20:18;;;;;;;2.55;2.35;;;19.50;79.50;;;;;;5042823;28;20583;-62
2023/02/23 05:22:44;;;;;;;3.45;2.45;;;19.50;79.50;;;;;;5041254;28;20211;-61
2023/02/23 05:25:13;;;;;;;2.88;2.65;;;19.50;79.50;;;;;;5046379;28;20617;-62
2023/02/23 05:27:40;;;;;;;2.90;2.70;;;19.50;79.50;;;;;;5041474;28;20199;-61
2023/02/23 05:30:08;;;;;;;2.85;2.65;;;19.50;79.50;;;;;;5037140;28;20196;-62
2023/02/23 05:32:35;;;;;;;4.07;3.10;;;19.50;79.50;;;;;;5046291;28;20223;-58
2023/02/23 05:35:02;;;;;;;2.75;2.55;;;19.50;79.40;;;;;;5044015;28;20615;-58
2023/02/23 05:37:29;;;;;;;2.90;2.70;;;19.50;79.40;;;;;;5048393;28;20230;-59
2023/02/23 05:39:55;;;;;;;3.78;3.05;;;19.50;79.40;;;;;;5042574;28;20214;-59
2023/02/23 05:42:23;;;;;;;3.05;2.75;;;19.50;79.40;;;;;;5040520;28;20555;-60
2023/02/23 05:44:50;;;;;;;2.95;2.75;;;19.50;79.30;;;;;;5039988;28;20211;-61
2023/02/23 05:47:17;;;;;;;2.80;2.40;;;19.50;79.30;;;;;;5042089;28;20224;-61
2023/02/23 05:49:45;;;;;;;3.03;2.72;;;19.50;79.30;;;;;;5040829;28;20204;-64
2023/02/23 05:52:11;;;;;;;2.60;2.40;;;19.50;79.30;;;;;;5047857;28;20294;-60
2023/02/23 05:54:38;;;;;;;3.28;2.78;;;19.50;79.30;;;;;;5047827;28;20200;-60
2023/02/23 05:57:05;;;;;;;3.17;2.85;;;19.50;79.30;;;;;;5046350;28;20204;-62
2023/02/23 05:59:33;;;;;;;2.80;2.60;;;19.50;79.30;;;;;;5044088;28;20199;-60
2023/02/23 06:01:59;;;;;;;2.60;2.40;;;19.50;79.30;;;;;;5045480;28;20207;-62
2023/02/23 06:04:26;;;;;;;2.42;2.22;;;19.50;79.30;;;;;;5046263;28;20202;-62
2023/02/23 06:06:53;;;;;;;2.65;2.45;;;19.50;79.30;;;;;;5047787;28;20230;-64
2023/02/23 06:09:19;;;;;;;2.88;2.67;;;19.50;79.30;;;;;;5039317;28;20229;-59
2023/02/23 06:11:46;;;;;;;2.60;2.40;;;19.50;79.20;;;;;;5045115;28;20207;-69
2023/02/23 06:14:15;;;;;;;3.58;3.28;;;19.50;79.20;;;;;;5046263;28;20207;-65
2023/02/23 06:16:43;;;;;;;3.17;2.88;;;19.50;79.20;;;;;;5048612;28;20250;-61
2023/02/23 06:19:10;;;;;;;2.55;2.35;;;19.50;79.20;;;;;;5044603;28;20598;-60
2023/02/23 06:21:37;;;;;;;2.70;2.50;;;19.50;79.10;;;;;;5041237;28;20207;-62
2023/02/23 06:24:04;;;;;;;3.38;3.08;;;19.50;79.10;;;;;;5041978;28;20203;-64
2023/02/23 06:26:32;;;;;;;3.28;3.00;;;19.50;79.10;;;;;;5045739;28;20303;-62
2023/02/23 06:28:59;;;;;;;3.45;2.95;;;19.50;79.10;;;;;;5045700;28;20211;-66
2023/02/23 06:31:26;;;;;;;2.53;2.33;;;19.50;79.10;;;;;;5036456;28;20188;-59
2023/02/23 06:33:54;;;;;;;2.40;2.20;;;19.50;79.10;;;;;;5044397;28;20203;-62
2023/02/23 06:36:20;;;;;;;2.63;2.42;;;19.50;79.10;;;;;;5045503;28;20204;-62
2023/02/23 06:38:47;;;;;;;2.80;2.60;;;19.50;79.10;;;;;;5042978;28;20672;-64
2023/02/23 06:41:14;;;;;;;1.88;1.77;;;19.50;79.10;;;;;;5046037;28;20241;-59
2023/02/23 06:43:41;;;;;;;3.08;2.88;;;19.50;79.10;;;;;;5046017;28;20222;-62
2023/02/23 06:46:07;;;;;;;3.10;2.90;;;19.50;79.10;;;;;;5039723;28;20228;-65
2023/02/23 06:48:35;;;;;;;3.35;3.05;;;19.50;79.10;;;;;;5039835;28;20198;-61
2023/02/23 06:51:03;;;;;;;2.72;2.53;;;19.50;79.10;;;;;;5039596;28;20224;-61
2023/02/23 06:53:30;;;;;;;3.42;3.15;;;19.50;79.10;;;;;;5043080;28;20549;-61
2023/02/23 06:55:57;;;;;;;2.80;2.60;;;19.50;79.10;;;;;;5047487;28;20498;-61
2023/02/23 06:58:24;;;;;;;2.60;2.40;;;19.50;79.10;;;;;;5044663;28;20871;-62
2023/02/23 07:00:50;;;;;;;2.60;2.40;;;19.50;79.80;;;;;;5044170;28;20643;-61
2023/02/23 07:03:19;;;;;;;2.58;2.38;;;19.60;79.10;;;;;;5041591;28;20198;-64
2023/02/23 07:05:45;;;;;;;2.63;2.42;;;19.60;79.10;;;;;;5046880;28;20215;-65
2023/02/23 07:08:14;;;;;;;2.40;2.20;;;19.60;79.10;;;;;;5042923;28;20187;-62
2023/02/23 07:10:40;;;;;;;2.65;2.45;;;19.60;79.10;;;;;;5043804;28;20575;-63
2023/02/23 07:13:07;;;;;;;3.00;2.80;;;19.60;79.10;;;;;;5043321;28;20196;-65
2023/02/23 07:15:35;;;;;;;4.45;3.03;;;19.60;79.10;;;;;;5041582;28;20576;-60
2023/02/23 07:18:02;;;;;;;7.88;2.80;;;19.60;79.10;;;;;;5044048;28;20199;-62
2023/02/23 07:20:30;;;;;;;4.10;2.35;;;19.70;79.60;;;;;;5043492;28;20192;-64
2023/02/23 07:22:56;;;;;;;2.72;2.53;;;19.70;79.50;;;;;;5049950;28;20219;-61
2023/02/23 07:25:24;;;;;;;2.60;2.40;;;19.70;79.60;;;;;;5048932;28;20539;-59
2023/02/23 07:27:52;;;;;;;2.42;2.22;;;19.70;79.60;;;;;;5045591;28;20223;-64
2023/02/23 07:30:23;;;;;;;2.33;2.13;;;19.70;79.60;;;;;;5049471;28;20274;-60
2023/02/23 07:32:50;;;;;;;2.80;2.53;;;19.70;79.60;;;;;;5043812;28;20203;-66
2023/02/23 07:35:17;;;;;;;3.08;2.60;;;19.70;79.60;;;;;;5048171;28;20207;-62
2023/02/23 07:37:43;;;;;;;2.45;2.25;;;19.70;79.60;;;;;;5047864;28;20219;-62
2023/02/23 07:40:11;;;;;;;2.10;1.90;;;19.70;79.60;;;;;;5045646;28;20218;-62
2023/02/23 07:42:39;;;;;;;2.75;2.55;;;19.80;79.80;;;;;;5047391;28;20207;-65
2023/02/23 07:45:08;;;;;;;2.42;2.22;;;19.80;79.60;;;;;;5042211;28;20196;-64
2023/02/23 07:47:36;;;;;;;3.90;3.05;;;19.80;80.40;;;;;;5047982;28;20309;-61
2023/02/23 07:50:08;;;;;;;2.70;2.40;;;19.80;79.60;;;;;;5048675;28;20291;-62
2023/02/23 07:52:35;;;;;;;2.35;2.15;;;19.80;79.70;;;;;;5050367;28;20563;-62
2023/02/23 07:55:02;;;;;;;2.90;2.70;;;19.80;79.60;;;;;;5045259;28;20641;-64
2023/02/23 07:57:29;;;;;;;3.00;2.80;;;19.80;79.60;;;;;;5048158;28;20947;-62
2023/02/23 07:59:57;;;;;;;3.08;2.20;;;19.80;79.60;;;;;;5047219;28;20197;-61
2023/02/23 08:02:23;;;;;;;2.80;2.60;;;19.80;79.60;;;;;;5047303;28;20198;-62
2023/02/23 08:04:52;;;;;;;2.53;2.33;;;19.80;79.60;;;;;;5049639;28;20206;-63
2023/02/23 08:07:19;;;;;;;2.58;2.03;;;19.80;79.60;;;;;;5048469;28;20715;-62
2023/02/23 08:09:47;;;;;;;2.80;2.50;;;19.80;79.60;;;;;;5047109;28;20614;-66
2023/02/23 08:12:14;;;;;;;2.00;1.90;;;19.80;79.60;;;;;;5049030;28;20215;-63
2023/02/23 08:14:41;;;;;;;2.30;2.10;;;19.90;79.80;;;;;;5044945;28;20222;-59
2023/02/23 08:17:10;;;;;;;2.40;2.20;;;19.90;79.80;;;;;;5049412;28;20682;-63
2023/02/23 08:19:37;;;;;;;2.25;2.00;;;19.90;79.70;;;;;;5046057;28;20199;-63
2023/02/23 08:22:03;;;;;;;2.10;2.00;;;19.90;79.80;;;;;;5048240;28;20242;-60
2023/02/23 08:24:30;;;;;;;2.60;2.40;;;19.90;79.80;;;;;;5044357;28;20222;-69
2023/02/23 08:26:57;;;;;;;2.60;2.40;;;19.90;79.80;;;;;;5049636;28;20220;-63
2023/02/23 08:29:24;;;;;;;2.42;2.22;;;19.90;79.70;;;;;;5044316;28;20200;-62
2023/02/23 08:31:51;;;;;;;2.30;2.10;;;19.90;79.70;;;;;;5036991;28;20570;-60
2023/02/23 08:34:21;;;;;;;2.30;2.10;;;19.90;79.80;;;;;;5041633;28;20199;-63
2023/02/23 08:36:48;;;;;;;2.67;2.47;;;19.90;79.80;;;;;;5039582;28;20208;-73
2023/02/23 08:39:15;;;;;;;2.30;2.03;;;19.90;79.80;;;;;;5034701;28;20200;-54
2023/02/23 08:41:42;;;;;;;2.72;2.40;;;19.90;79.80;;;;;;5048464;28;20467;-63
2023/02/23 08:44:09;;;;;;;4.70;2.97;;;19.90;80.00;;;;;;5047715;28;20214;-63
2023/02/23 08:46:36;;;;;;;2.53;2.33;;;20.00;80.50;;;;;;5048697;28;20650;-59
2023/02/23 08:49:03;;;;;;;2.92;2.22;;;19.90;80.40;;;;;;5044915;28;20210;-63
2023/02/23 08:51:33;;;;;;;3.25;2.67;;;19.90;80.40;;;;;;5040140;28;20187;-61
2023/02/23 08:54:01;;;;;;;3.20;2.28;;;19.90;80.40;;;;;;5047114;28;20566;-64
2023/02/23 08:56:27;;;;;;;2.22;1.95;;;19.90;80.50;;;;;;5046703;28;20203;-61
2023/02/23 08:58:54;;;;;;;2.65;1.95;;;19.90;80.60;;;;;;5041399;28;20453;-60
2023/02/23 09:01:21;;;;;;;2.75;2.22;;;19.90;80.70;;;;;;5039807;28;20210;-62
2023/02/23 09:03:48;;;;;;;2.10;2.00;;;19.90;80.70;;;;;;5043821;28;20208;-59
2023/02/23 09:06:17;;;;;;;2.28;2.08;;;19.90;80.70;;;;;;5045438;28;20195;-61
2023/02/23 09:08:46;;;;;;;3.00;2.70;;;19.90;80.80;;;;;;5044362;28;20215;-61
2023/02/23 09:11:12;;;;;;;3.45;2.70;;;19.90;80.90;;;;;;5042869;28;20770;-64
2023/02/23 09:13:39;;;;;;;1.98;1.75;;;19.90;80.90;;;;;;5043488;28;20310;-66
2023/02/23 09:16:08;;;;;;;2.83;2.63;;;19.90;81.00;;;;;;5042248;28;20199;-62
2023/02/23 09:18:35;;;;;;;3.20;2.90;;;19.90;81.00;;;;;;5047203;28;20203;-67
2023/02/23 09:21:05;;;;;;;3.45;2.90;;;19.90;81.00;;;;;;5044252;28;20196;-61
2023/02/23 09:23:32;;;;;;;3.08;2.30;;;19.90;81.10;;;;;;5047374;28;20199;-62
2023/02/23 09:26:04;;;;;;;2.40;2.20;;;19.90;81.10;;;;;;5040650;28;20675;-61
2023/02/23 09:28:32;;;;;;;2.30;2.10;;;19.90;81.10;;;;;;5042404;28;20354;-62
2023/02/23 09:31:04;;;;;;;2.45;2.25;;;19.90;81.20;;;;;;5040116;28;20306;-62
2023/02/23 09:33:30;;;;;;;3.25;2.95;;;19.90;82.00;;;;;;5042198;28;20203;-61
2023/02/23 09:35:57;;;;;;;2.75;2.55;;;19.90;81.20;;;;;;5045627;28;20659;-60
2023/02/23 09:38:24;;;;;;;2.75;2.22;;;19.90;81.20;;;;;;5043992;28;20204;-67
2023/02/23 09:40:53;;;;;;;3.05;2.55;;;20.00;81.40;;;;;;5042704;28;20191;-62
2023/02/23 09:43:26;;;;;;;3.13;2.88;;;20.00;81.40;;;;;;5041083;28;20212;-61
2023/02/23 09:45:59;;;;;;;2.55;2.35;;;20.00;81.40;;;;;;5047306;28;20218;-59
2023/02/23 09:48:28;;;;;;;2.50;2.30;;;20.00;81.40;;;;;;5042474;28;20238;-58
2023/02/23 09:50:56;;;;;;;3.75;3.45;;;20.00;81.50;;;;;;5039974;28;20207;-64
2023/02/23 09:53:32;;;;;;;2.70;2.45;;;20.00;81.40;;;;;;5037609;28;20206;-64
2023/02/23 09:55:59;;;;;;;2.20;2.00;;;20.00;81.50;;;;;;5046775;28;20662;-57
2023/02/23 09:58:29;;;;;;;2.55;2.35;;;20.00;81.50;;;;;;5043706;28;20203;-59
2023/02/23 10:01:17;;;;;;;2.80;2.60;;;20.00;81.60;;;;;;5042007;28;20219;-56
2023/02/23 10:03:52;;;;;;;2.53;2.05;;;20.00;81.50;;;;;;5037427;28;20283;-68
2023/02/23 10:06:19;;;;;;;2.90;2.70;;;20.00;81.60;;;;;;5048906;28;20230;-59
2023/02/23 10:08:55;;;;;;;2.92;2.67;;;20.00;81.60;;;;;;5037442;28;20274;-65
2023/02/23 10:11:26;;;;;;;2.50;2.30;;;20.00;81.60;;;;;;5046691;28;20199;-61
2023/02/23 10:14:11;;;;;;;2.65;2.30;;;20.00;81.60;;;;;;5046898;28;20199;-67
2023/02/23 10:16:50;;;;;;;2.92;2.35;;;20.00;81.60;;;;;;5039609;28;20211;-60
2023/02/23 10:19:26;;;;;;;2.45;2.25;;;20.00;81.60;;;;;;5033247;28;20210;-61
2023/02/23 10:21:56;;;;;;;3.22;2.92;;;20.00;81.60;;;;;;5034732;28;20215;-61
2023/02/23 10:24:27;;;;;;;2.88;2.67;;;19.90;81.50;;;;;;5041612;28;20215;-57
2023/02/23 10:26:56;;;;;;;2.67;2.47;;;20.00;81.60;;;;;;5045963;28;20202;-61
2023/02/23 10:29:31;;;;;;;3.08;2.83;;;20.00;81.60;;;;;;5038478;28;20195;-59
2023/02/23 10:32:02;;;;;;;3.60;2.85;;;20.00;81.60;;;;;;5043010;28;20294;-63
2023/02/23 10:34:30;;;;;;;2.88;2.67;;;20.00;81.60;;;;;;5043236;28;20206;-60
2023/02/23 10:37:00;;;;;;;2.30;2.10;;;20.00;81.60;;;;;;5036974;28;20215;-58
2023/02/23 10:39:28;;;;;;;3.00;2.80;;;20.00;81.60;;;;;;5036052;28;20574;-61
2023/02/23 10:41:57;;;;;;;3.78;3.47;;;20.00;81.60;;;;;;5045270;28;20195;-59
2023/02/23 10:44:27;;;;;;;5.40;4.40;;;20.00;81.60;;;;;;5044462;28;20203;-62
2023/02/23 10:46:57;;;;;;;4.93;3.80;;;20.00;81.60;;;;;;5037303;28;20219;-60
2023/02/23 10:49:32;;;;;;;3.38;3.08;;;20.00;81.60;;;;;;5033911;28;20199;-62
2023/02/23 10:52:01;;;;;;;33.65;17.40;;;20.10;81.60;;;;;;5045563;28;20198;-60
2023/02/23 10:54:37;;;;;;;32.80;22.60;;;19.90;81.00;;;;;;5049463;28;20195;-62
2023/02/23 10:57:06;;;;;;;28.13;24.23;;;19.70;80.40;;;;;;5034008;28;20582;-62
2023/02/23 10:59:35;;;;;;;29.10;25.95;;;19.50;80.00;;;;;;5048027;28;20660;-60
2023/02/23 11:02:21;;;;;;;30.73;25.50;;;19.40;79.50;;;;;;5043270;28;20652;-61
2023/02/23 11:04:55;;;;;;;34.38;29.23;;;19.30;79.30;;;;;;5046730;28;20563;-62
2023/02/23 11:07:24;;;;;;;30.88;27.58;;;19.30;79.50;;;;;;5044042;28;20242;-63
2023/02/23 11:09:51;;;;;;;29.05;25.85;;;19.30;79.60;;;;;;5047323;28;20278;-52
2023/02/23 11:12:21;;;;;;;28.90;24.33;;;19.30;79.40;;;;;;5045145;28;20196;-50
2023/02/23 11:14:50;;;;;;;19.77;17.67;;;19.40;79.20;;;;;;5039669;28;20270;-52
2023/02/23 11:17:30;;;;;;;25.15;18.05;;;19.50;79.20;;;;;;5037217;28;20203;-49
2023/02/23 11:20:02;;;;;;;16.02;14.35;;;19.60;79.30;;;;;;5041395;28;20207;-52
2023/02/23 11:22:33;;;;;;;15.05;13.48;;;19.70;79.60;;;;;;5043491;28;20718;-52
2023/02/23 11:25:02;;;;;;;13.05;11.50;;;19.70;79.60;;;;;;5037743;28;20200;-55
2023/02/23 11:27:29;;;;;;;13.25;11.27;;;19.80;79.80;;;;;;5041498;28;20238;-48
2023/02/23 11:30:03;;;;;;;14.70;10.65;;;19.80;79.90;;;;;;5047991;28;20199;-53
2023/02/23 11:32:37;;;;;;;11.25;10.15;;;19.80;80.00;;;;;;5042559;28;20202;-55
2023/02/23 11:35:29;;;;;;;9.43;8.52;;;19.90;80.10;;;;;;5039259;28;20703;-49
2023/02/23 11:37:57;;;;;;;9.98;8.60;;;19.90;80.40;;;;;;5043540;28;20200;-56
2023/02/23 11:40:26;;;;;;;8.60;7.35;;;19.90;80.60;;;;;;5046463;28;20200;-50
2023/02/23 11:42:55;;;;;;;9.07;8.18;;;19.90;80.70;;;;;;5047320;28;20204;-53
2023/02/23 11:45:26;;;;;;;8.07;7.28;;;19.90;80.70;;;;;;5042491;28;20199;-56
2023/02/23 11:47:57;;;;;;;7.47;6.68;;;19.90;80.90;;;;;;5046957;28;20223;-55
2023/02/23 11:50:28;;;;;;;8.45;6.22;;;19.90;81.00;;;;;;5041432;28;20416;-52
2023/02/23 11:53:04;;;;;;;7.90;6.93;;;20.00;81.10;;;;;;5045928;28;20210;-51
2023/02/23 11:55:33;;;;;;;7.45;6.50;;;20.00;81.10;;;;;;5044378;28;20219;-53
2023/02/23 11:58:21;;;;;;;5.97;5.47;;;20.00;81.10;;;;;;5050518;28;20203;-55
2023/02/23 12:00:57;;;;;;;5.55;5.03;;;20.00;81.20;;;;;;5041596;28;20206;-56
2023/02/23 12:03:26;;;;;;;6.47;5.88;;;20.00;81.20;;;;;;5043436;28;20610;-57
2023/02/23 12:05:56;;;;;;;6.40;5.85;;;20.00;81.20;;;;;;5036578;28;20195;-54
2023/02/23 12:08:33;;;;;;;6.57;5.68;;;20.00;81.30;;;;;;5050033;28;20215;-55
2023/02/23 12:11:05;;;;;;;6.57;5.97;;;19.90;81.00;;;;;;5043970;28;20717;-67
2023/02/23 12:13:36;;;;;;;5.72;4.97;;;20.00;81.30;;;;;;5049271;28;20199;-59
2023/02/23 12:16:09;;;;;;;5.15;4.75;;;20.00;81.10;;;;;;5043456;28;20191;-63
2023/02/23 12:18:44;;;;;;;5.30;4.82;;;20.10;81.10;;;;;;5048058;28;20195;-65
2023/02/23 12:21:21;;;;;;;5.88;5.07;;;20.10;81.00;;;;;;5039478;28;20232;-62
2023/02/23 12:23:49;;;;;;;4.97;4.57;;;20.20;81.10;;;;;;5042459;28;20195;-61
2023/02/23 12:26:20;;;;;;;4.82;4.43;;;20.20;81.90;;;;;;5039737;28;20204;-65
2023/02/23 12:28:52;;;;;;;4.95;4.55;;;20.20;81.10;;;;;;5041254;28;20223;-62
2023/02/23 12:31:26;;;;;;;5.63;5.03;;;20.20;81.20;;;;;;5041363;28;20191;-63
2023/02/23 12:33:57;;;;;;;7.90;4.47;;;20.30;81.30;;;;;;5040561;28;20250;-66
2023/02/23 12:36:30;;;;;;;5.15;4.07;;;20.30;81.40;;;;;;5040296;28;20601;-64
2023/02/23 12:39:03;;;;;;;4.05;3.75;;;20.30;81.50;;;;;;5041097;28;20207;-65
2023/02/23 12:41:35;;;;;;;8.82;5.35;;;20.30;81.60;;;;;;5041614;28;20199;-62
2023/02/23 12:44:14;;;;;;;4.20;3.80;;;20.30;81.60;;;;;;5045194;28;20210;-67
2023/02/23 12:46:47;;;;;;;5.40;4.60;;;20.40;81.70;;;;;;5033872;28;20591;-63
2023/02/23 12:49:21;;;;;;;4.90;4.28;;;20.40;81.80;;;;;;5042680;28;20313;-62
2023/02/23 12:51:52;;;;;;;4.68;4.28;;;20.30;81.70;;;;;;5041429;28;20200;-64
2023/02/23 12:54:19;;;;;;;4.55;4.18;;;20.40;81.80;;;;;;5046057;28;20199;-62
2023/02/23 12:57:09;;;;;;;4.35;3.95;;;20.40;81.80;;;;;;5043418;28;20659;-65
2023/02/23 12:59:54;;;;;;;5.00;4.37;;;20.40;81.80;;;;;;5042296;28;20666;-68
2023/02/23 13:02:29;;;;;;;4.85;4.40;;;20.40;81.90;;;;;;5047062;28;20461;-64
2023/02/23 13:05:11;;;;;;;5.25;4.18;;;20.40;81.90;;;;;;5032621;28;20208;-64
2023/02/23 13:07:46;;;;;;;3.83;3.53;;;20.40;81.90;;;;;;5040963;28;20222;-61
2023/02/23 13:10:25;;;;;;;4.90;4.43;;;20.50;82.00;;;;;;5042932;28;20187;-63
2023/02/23 13:13:00;;;;;;;4.30;3.90;;;20.50;82.10;;;;;;5040552;28;20466;-58
2023/02/23 13:15:41;;;;;;;3.80;3.40;;;20.50;82.10;;;;;;5041895;28;20207;-62
2023/02/23 13:18:18;;;;;;;3.92;3.58;;;20.50;82.10;;;;;;5044689;28;20211;-58
2023/02/23 13:20:49;;;;;;;4.47;4.07;;;20.50;82.20;;;;;;5044422;28;20202;-60
2023/02/23 13:23:24;;;;;;;4.00;3.55;;;20.50;82.20;;;;;;5032646;28;20227;-64
2023/02/23 13:25:59;;;;;;;4.20;3.83;;;20.50;82.20;;;;;;5043241;28;20639;-65
2023/02/23 13:28:39;;;;;;;4.60;4.15;;;20.60;82.30;;;;;;5044031;28;20292;-64
2023/02/23 13:31:18;;;;;;;3.23;3.03;;;20.60;82.30;;;;;;5032673;28;20200;-69
2023/02/23 13:33:46;;;;;;;3.50;3.20;;;20.60;82.30;;;;;;5045537;28;20588;-64
2023/02/23 13:36:13;;;;;;;4.03;3.72;;;20.60;82.30;;;;;;5046665;28;20922;-64
2023/02/23 13:38:46;;;;;;;4.10;3.80;;;20.60;82.30;;;;;;5046835;28;20568;-63
2023/02/23 13:41:24;;;;;;;4.07;3.77;;;20.60;82.30;;;;;;5049067;28;20675;-63
2023/02/23 13:43:58;;;;;;;3.75;3.38;;;20.60;82.30;;;;;;5045425;28;20484;-62
2023/02/23 13:46:36;;;;;;;4.43;3.63;;;20.60;82.30;;;;;;5039697;28;20728;-62
2023/02/23 13:49:16;;;;;;;3.63;3.33;;;20.60;82.30;;;;;;5044482;28;20473;-60
2023/02/23 13:51:48;;;;;;;4.07;3.67;;;20.60;82.30;;;;;;5037871;28;20672;-61
2023/02/23 13:54:30;;;;;;;3.10;2.90;;;20.70;82.40;;;;;;5040760;28;20984;-64
2023/02/23 13:57:00;;;;;;;3.45;3.15;;;20.70;82.40;;;;;;5038786;28;20673;-61
2023/02/23 13:59:29;;;;;;;3.50;3.20;;;20.70;82.40;;;;;;5034396;28;20288;-64
2023/02/23 14:01:56;;;;;;;3.70;3.40;;;20.70;82.40;;;;;;5040464;28;20207;-66
2023/02/23 14:04:27;;;;;;;3.42;3.22;;;20.70;82.40;;;;;;5040644;28;20207;-62
2023/02/23 14:07:04;;;;;;;3.33;3.03;;;20.70;82.30;;;;;;5042415;28;20290;-64
2023/02/23 14:09:33;;;;;;;3.30;3.10;;;20.70;82.30;;;;;;5038353;28;20473;-61
2023/02/23 14:12:15;;;;;;;3.53;3.23;;;20.70;82.30;;;;;;5039565;28;21142;-55
2023/02/23 14:14:43;;;;;;;4.30;3.90;;;20.70;82.30;;;;;;5041792;28;20489;-59
2023/02/23 14:17:49;;;;;;;3.03;2.80;;;20.60;82.50;;;;;;5043086;28;21006;-56
2023/02/23 14:20:42;;;;;;;4.03;3.23;;;20.60;82.50;;;;;;5039905;28;20524;-57
2023/02/23 14:23:27;;;;;;;3.40;3.10;;;20.60;82.60;;;;;;5039810;28;20492;-57